createdAt,value
2016-10-20T00:00:11.156Z,0
2016-10-20T00:01:11.130Z,0
2016-10-20T00:02:11.137Z,0
2016-10-20T00:03:11.072Z,0
2016-10-20T00:04:11.040Z,0
2016-10-20T00:05:11.007Z,0
2016-10-20T00:06:10.983Z,0
2016-10-20T00:07:10.995Z,0
2016-10-20T00:08:10.922Z,0
2016-10-20T00:09:10.897Z,0
2016-10-20T00:10:10.860Z,0
2016-10-20T00:11:10.836Z,0
2016-10-20T00:12:10.802Z,0
2016-10-20T00:13:10.781Z,0
2016-10-20T00:14:10.754Z,0
2016-10-20T00:15:10.732Z,0
2016-10-20T00:16:10.682Z,0
2016-10-20T00:17:10.674Z,0
2016-10-20T00:18:10.628Z,0
2016-10-20T00:19:10.601Z,0
2016-10-20T00:20:10.575Z,0
2016-10-20T00:21:10.595Z,0
2016-10-20T00:22:10.515Z,0
2016-10-20T00:23:10.488Z,0
2016-10-20T00:24:10.463Z,0
2016-10-20T00:25:10.430Z,0
2016-10-20T00:26:10.401Z,0
2016-10-20T00:27:10.373Z,0
2016-10-20T00:28:10.346Z,0
2016-10-20T00:29:10.314Z,0
2016-10-20T00:30:10.582Z,0
2016-10-20T00:31:10.257Z,0
2016-10-20T00:32:10.228Z,0
2016-10-20T00:33:10.198Z,0
2016-10-20T00:34:10.174Z,0
2016-10-20T00:35:10.180Z,0
2016-10-20T00:36:10.111Z,0
2016-10-20T00:37:10.091Z,0
2016-10-20T00:38:10.056Z,0
2016-10-20T00:39:10.024Z,0
2016-10-20T00:40:09.999Z,0
2016-10-20T00:41:10.343Z,0
2016-10-20T00:42:09.946Z,0
2016-10-20T00:43:09.912Z,0
2016-10-20T00:44:09.936Z,0
2016-10-20T00:45:09.852Z,0
2016-10-20T00:46:09.828Z,0
2016-10-20T00:47:09.800Z,0
2016-10-20T00:48:10.062Z,0
2016-10-20T00:49:09.783Z,0
2016-10-20T00:50:09.712Z,0
2016-10-20T00:51:09.686Z,0
2016-10-20T00:52:09.649Z,0
2016-10-20T00:53:09.628Z,0
2016-10-20T00:54:09.596Z,0
2016-10-20T00:55:09.570Z,0
2016-10-20T00:56:09.539Z,0
2016-10-20T00:57:09.510Z,0
2016-10-20T00:58:09.478Z,0
2016-10-20T00:59:09.452Z,0
2016-10-20T01:00:09.424Z,0
2016-10-20T01:01:09.644Z,0
2016-10-20T01:02:09.369Z,0
2016-10-20T01:03:09.336Z,0
2016-10-20T01:04:09.314Z,0
2016-10-20T01:05:09.281Z,0
2016-10-20T01:06:09.253Z,0
2016-10-20T01:07:09.225Z,0
2016-10-20T01:08:09.202Z,0
2016-10-20T01:09:09.168Z,0
2016-10-20T01:10:09.140Z,0
2016-10-20T01:11:09.147Z,0
2016-10-20T01:12:09.084Z,0
2016-10-20T01:13:09.049Z,0
2016-10-20T01:14:09.022Z,0
2016-10-20T01:15:08.999Z,0
2016-10-20T01:16:08.985Z,0
2016-10-20T01:17:08.938Z,0
2016-10-20T01:18:08.922Z,0
2016-10-20T01:19:08.875Z,0
2016-10-20T01:20:08.853Z,0
2016-10-20T01:21:08.826Z,0
2016-10-20T01:22:08.795Z,0
2016-10-20T01:23:08.764Z,0
2016-10-20T01:24:08.735Z,0
2016-10-20T01:25:08.708Z,0
2016-10-20T01:26:08.676Z,0
2016-10-20T01:27:08.656Z,0
2016-10-20T01:28:08.627Z,0
2016-10-20T01:29:08.601Z,0
2016-10-20T01:30:08.565Z,0
2016-10-20T01:31:08.568Z,0
2016-10-20T01:32:08.514Z,0
2016-10-20T01:33:08.482Z,0
2016-10-20T01:34:08.448Z,0
2016-10-20T01:35:08.427Z,0
2016-10-20T01:36:08.397Z,0
2016-10-20T01:37:08.364Z,0
2016-10-20T01:38:08.341Z,0
2016-10-20T01:39:08.310Z,0
2016-10-20T01:40:08.278Z,0
2016-10-20T01:41:08.255Z,0
2016-10-20T01:42:08.233Z,0
2016-10-20T01:43:08.195Z,0
2016-10-20T01:44:08.177Z,0
2016-10-20T01:45:08.145Z,0
2016-10-20T01:46:08.147Z,0
2016-10-20T01:47:08.079Z,0
2016-10-20T01:48:08.052Z,0
2016-10-20T01:49:08.021Z,0
2016-10-20T01:50:08.036Z,0
2016-10-20T01:51:08.271Z,0
2016-10-20T01:52:07.939Z,0
2016-10-20T01:53:07.947Z,0
2016-10-20T01:54:07.879Z,0
2016-10-20T01:55:07.881Z,0
2016-10-20T01:56:07.843Z,0
2016-10-20T01:57:07.800Z,0
2016-10-20T01:58:07.771Z,0
2016-10-20T01:59:07.742Z,0
2016-10-20T02:00:07.747Z,0
2016-10-20T02:01:07.677Z,0
2016-10-20T02:02:07.666Z,0
2016-10-20T02:03:07.629Z,0
2016-10-20T02:04:07.610Z,0
2016-10-20T02:05:07.562Z,0
2016-10-20T02:06:07.539Z,0
2016-10-20T02:07:07.810Z,0
2016-10-20T02:08:07.479Z,0
2016-10-20T02:09:07.453Z,0
2016-10-20T02:10:07.428Z,0
2016-10-20T02:11:07.393Z,0
2016-10-20T02:12:07.370Z,0
2016-10-20T02:13:07.375Z,0
2016-10-20T02:14:07.305Z,0
2016-10-20T02:15:07.283Z,0
2016-10-20T02:16:07.255Z,0
2016-10-20T02:17:07.225Z,0
2016-10-20T02:18:07.396Z,0
2016-10-20T02:19:07.177Z,0
2016-10-20T02:20:07.146Z,0
2016-10-20T02:21:07.110Z,0
2016-10-20T02:22:07.083Z,0
2016-10-20T02:23:07.056Z,0
2016-10-20T02:24:07.030Z,0
2016-10-20T02:25:07.001Z,0
2016-10-20T02:26:06.975Z,0
2016-10-20T02:27:06.940Z,0
2016-10-20T02:28:06.914Z,0
2016-10-20T02:29:07.180Z,0
2016-10-20T02:30:06.863Z,0
2016-10-20T02:31:06.831Z,0
2016-10-20T02:32:06.806Z,0
2016-10-20T02:33:06.818Z,0
2016-10-20T02:34:06.743Z,0
2016-10-20T02:35:06.748Z,0
2016-10-20T02:36:06.690Z,0
2016-10-20T02:37:06.661Z,0
2016-10-20T02:38:06.628Z,0
2016-10-20T02:39:06.597Z,0
2016-10-20T02:40:06.571Z,0
2016-10-20T02:41:06.548Z,0
2016-10-20T02:42:06.511Z,0
2016-10-20T02:43:06.486Z,0
2016-10-20T02:44:06.459Z,0
2016-10-20T02:45:06.473Z,0
2016-10-20T02:46:06.399Z,0
2016-10-20T02:47:06.369Z,0
2016-10-20T02:48:06.346Z,0
2016-10-20T02:49:06.314Z,0
2016-10-20T02:50:06.290Z,0
2016-10-20T02:51:06.287Z,0
2016-10-20T02:52:06.228Z,0
2016-10-20T02:53:06.204Z,0
2016-10-20T02:54:06.213Z,0
2016-10-20T02:55:06.180Z,0
2016-10-20T02:56:06.115Z,0
2016-10-20T02:57:06.098Z,0
2016-10-20T02:58:06.069Z,0
2016-10-20T02:59:06.030Z,0
2016-10-20T03:00:06.009Z,0
2016-10-20T03:01:05.977Z,0
2016-10-20T03:02:05.957Z,0
2016-10-20T03:03:05.921Z,0
2016-10-20T03:04:05.888Z,0
2016-10-20T03:05:05.866Z,0
2016-10-20T03:06:05.870Z,0
2016-10-20T03:07:05.814Z,0
2016-10-20T03:08:05.770Z,0
2016-10-20T03:09:05.751Z,0
2016-10-20T03:10:06.020Z,0
2016-10-20T03:11:05.690Z,0
2016-10-20T03:12:05.664Z,0
2016-10-20T03:13:05.635Z,0
2016-10-20T03:14:05.602Z,0
2016-10-20T03:15:05.590Z,0
2016-10-20T03:16:05.547Z,0
2016-10-20T03:17:05.521Z,0
2016-10-20T03:18:05.789Z,0
2016-10-20T03:19:05.469Z,0
2016-10-20T03:20:05.436Z,0
2016-10-20T03:21:05.404Z,0
2016-10-20T03:22:05.674Z,0
2016-10-20T03:23:05.642Z,0
2016-10-20T03:24:05.330Z,0
2016-10-20T03:25:05.589Z,0
2016-10-20T03:26:05.266Z,0
2016-10-20T03:27:05.241Z,0
2016-10-20T03:28:05.206Z,0
2016-10-20T03:29:05.477Z,0
2016-10-20T03:30:05.149Z,0
2016-10-20T03:31:05.140Z,0
2016-10-20T03:32:05.095Z,0
2016-10-20T03:33:05.073Z,0
2016-10-20T03:34:05.079Z,0
2016-10-20T03:35:05.005Z,0
2016-10-20T03:36:05.017Z,0
2016-10-20T03:37:04.953Z,0
2016-10-20T03:38:04.923Z,0
2016-10-20T03:39:04.892Z,0
2016-10-20T03:40:04.898Z,0
2016-10-20T03:41:04.873Z,0
2016-10-20T03:42:04.862Z,0
2016-10-20T03:43:04.784Z,0
2016-10-20T03:44:04.751Z,0
2016-10-20T03:45:04.726Z,0
2016-10-20T03:46:04.735Z,0
2016-10-20T03:47:04.665Z,0
2016-10-20T03:48:04.635Z,0
2016-10-20T03:49:04.902Z,0
2016-10-20T03:50:04.581Z,0
2016-10-20T03:51:04.558Z,0
2016-10-20T03:52:04.527Z,0
2016-10-20T03:53:04.498Z,0
2016-10-20T03:54:04.471Z,0
2016-10-20T03:55:04.439Z,0
2016-10-20T03:56:04.415Z,0
2016-10-20T03:57:04.384Z,0
2016-10-20T03:58:04.361Z,0
2016-10-20T03:59:04.327Z,0
2016-10-20T04:00:04.299Z,0
2016-10-20T04:01:04.270Z,0
2016-10-20T04:02:04.237Z,0
2016-10-20T04:03:04.211Z,0
2016-10-20T04:04:04.179Z,0
2016-10-20T04:05:04.156Z,0
2016-10-20T04:06:04.133Z,0
2016-10-20T04:07:04.097Z,0
2016-10-20T04:08:04.070Z,0
2016-10-20T04:09:04.040Z,0
2016-10-20T04:10:04.011Z,0
2016-10-20T04:11:04.016Z,0
2016-10-20T04:12:03.953Z,0
2016-10-20T04:13:03.929Z,0
2016-10-20T04:14:03.900Z,0
2016-10-20T04:15:03.871Z,0
2016-10-20T04:16:03.842Z,0
2016-10-20T04:17:03.816Z,0
2016-10-20T04:18:03.786Z,0
2016-10-20T04:19:03.752Z,0
2016-10-20T04:20:03.727Z,0
2016-10-20T04:21:03.696Z,0
2016-10-20T04:22:03.673Z,0
2016-10-20T04:23:03.639Z,0
2016-10-20T04:24:03.613Z,0
2016-10-20T04:25:03.583Z,0
2016-10-20T04:26:03.553Z,0
2016-10-20T04:27:03.525Z,0
2016-10-20T04:28:03.495Z,0
2016-10-20T04:29:03.467Z,0
2016-10-20T04:30:03.453Z,0
2016-10-20T04:31:03.417Z,0
2016-10-20T04:32:03.387Z,0
2016-10-20T04:33:03.362Z,0
2016-10-20T04:34:03.331Z,0
2016-10-20T04:35:03.595Z,0
2016-10-20T04:36:03.271Z,0
2016-10-20T04:37:03.245Z,0
2016-10-20T04:38:03.215Z,0
2016-10-20T04:39:03.189Z,0
2016-10-20T04:40:03.455Z,0
2016-10-20T04:41:03.133Z,0
2016-10-20T04:42:03.099Z,0
2016-10-20T04:43:03.064Z,0
2016-10-20T04:44:03.041Z,0
2016-10-20T04:45:03.014Z,0
2016-10-20T04:46:02.985Z,0
2016-10-20T04:47:02.994Z,0
2016-10-20T04:48:03.222Z,0
2016-10-20T04:49:02.903Z,0
2016-10-20T04:50:02.867Z,0
2016-10-20T04:51:02.853Z,0
2016-10-20T04:52:02.817Z,0
2016-10-20T04:53:02.786Z,0
2016-10-20T04:54:02.799Z,0
2016-10-20T04:55:02.727Z,0
2016-10-20T04:56:02.699Z,0
2016-10-20T04:57:02.670Z,0
2016-10-20T04:58:02.646Z,0
2016-10-20T04:59:02.616Z,0
2016-10-20T05:00:02.589Z,0
2016-10-20T05:01:02.555Z,0
2016-10-20T05:02:02.529Z,0
2016-10-20T05:03:02.507Z,0
2016-10-20T05:04:02.510Z,0
2016-10-20T05:05:02.443Z,0
2016-10-20T05:06:02.414Z,0
2016-10-20T05:07:02.383Z,0
2016-10-20T05:08:02.360Z,0
2016-10-20T05:09:02.341Z,0
2016-10-20T05:10:02.303Z,0
2016-10-20T05:11:02.276Z,0
2016-10-20T05:12:02.251Z,0
2016-10-20T05:13:02.213Z,0
2016-10-20T05:14:02.187Z,0
2016-10-20T05:15:02.160Z,0
2016-10-20T05:16:02.129Z,0
2016-10-20T05:17:02.108Z,0
2016-10-20T05:18:02.075Z,0
2016-10-20T05:19:02.054Z,0
2016-10-20T05:20:02.017Z,0
2016-10-20T05:21:01.991Z,0
2016-10-20T05:22:01.958Z,0
2016-10-20T05:23:01.931Z,0
2016-10-20T05:24:01.911Z,0
2016-10-20T05:25:01.880Z,0
2016-10-20T05:26:01.854Z,0
2016-10-20T05:27:01.814Z,0
2016-10-20T05:28:01.788Z,0
2016-10-20T05:29:01.797Z,0
2016-10-20T05:30:01.731Z,0
2016-10-20T05:31:01.710Z,4
2016-10-20T05:32:01.678Z,4
2016-10-20T05:33:01.644Z,0
2016-10-20T05:34:01.618Z,4
2016-10-20T05:35:01.588Z,4
2016-10-20T05:36:01.565Z,4
2016-10-20T05:37:01.532Z,4
2016-10-20T05:38:01.508Z,4
2016-10-20T05:39:01.480Z,8
2016-10-20T05:40:01.442Z,8
2016-10-20T05:41:01.420Z,12
2016-10-20T05:42:01.427Z,16
2016-10-20T05:43:01.634Z,16
2016-10-20T05:44:01.337Z,20
2016-10-20T05:45:01.311Z,24
2016-10-20T05:46:01.276Z,28
2016-10-20T05:47:01.250Z,36
2016-10-20T05:48:01.218Z,40
2016-10-20T05:49:01.188Z,44
2016-10-20T05:50:01.168Z,48
2016-10-20T05:51:01.141Z,60
2016-10-20T05:52:01.110Z,64
2016-10-20T05:53:01.075Z,72
2016-10-20T05:54:01.051Z,76
2016-10-20T05:55:01.037Z,88
2016-10-20T05:56:00.988Z,96
2016-10-20T05:57:00.963Z,108
2016-10-20T05:58:00.938Z,120
2016-10-20T05:59:00.908Z,132
2016-10-20T06:00:00.880Z,144
2016-10-20T06:01:00.848Z,160
2016-10-20T06:02:00.818Z,172
2016-10-20T06:03:00.797Z,184
2016-10-20T06:04:00.761Z,200
2016-10-20T06:05:00.778Z,220
2016-10-20T06:06:00.706Z,248
2016-10-20T06:07:01.583Z,280
2016-10-20T06:08:00.661Z,312
2016-10-20T06:09:00.663Z,344
2016-10-20T06:10:00.598Z,376
2016-10-20T06:11:00.568Z,408
2016-10-20T06:12:00.535Z,444
2016-10-20T06:13:00.510Z,476
2016-10-20T06:14:00.484Z,508
2016-10-20T06:15:00.456Z,540
2016-10-20T06:16:00.418Z,564
2016-10-20T06:17:00.395Z,576
2016-10-20T06:18:00.371Z,592
2016-10-20T06:19:00.334Z,624
2016-10-20T06:20:00.305Z,664
2016-10-20T06:21:00.275Z,720
2016-10-20T06:22:00.254Z,788
2016-10-20T06:23:00.223Z,872
2016-10-20T06:24:00.198Z,984
2016-10-20T06:25:00.165Z,1104
2016-10-20T06:26:00.138Z,1220
2016-10-20T06:27:00.105Z,1316
2016-10-20T06:28:00.084Z,1396
2016-10-20T06:29:00.077Z,1468
2016-10-20T06:30:00.021Z,1528
2016-10-20T06:30:59.996Z,1580
2016-10-20T06:31:59.964Z,1620
2016-10-20T06:32:59.938Z,1664
2016-10-20T06:33:59.912Z,1712
2016-10-20T06:34:59.881Z,1768
2016-10-20T06:35:59.859Z,1820
2016-10-20T06:36:59.824Z,1864
2016-10-20T06:37:59.794Z,1896
2016-10-20T06:38:59.765Z,1932
2016-10-20T06:39:59.735Z,1960
2016-10-20T06:40:59.711Z,2000
2016-10-20T06:41:59.686Z,2068
2016-10-20T06:43:00.103Z,2124
2016-10-20T06:43:59.625Z,2176
2016-10-20T06:44:59.596Z,2220
2016-10-20T06:45:59.570Z,2248
2016-10-20T06:46:59.537Z,2272
2016-10-20T06:47:59.508Z,2284
2016-10-20T06:48:59.519Z,2292
2016-10-20T06:49:59.451Z,2316
2016-10-20T06:50:59.423Z,2364
2016-10-20T06:51:59.396Z,2416
2016-10-20T06:52:59.365Z,2468
2016-10-20T06:53:59.342Z,2488
2016-10-20T06:54:59.308Z,2504
2016-10-20T06:55:59.317Z,2532
2016-10-20T06:56:59.256Z,2544
2016-10-20T06:57:59.225Z,2528
2016-10-20T06:58:59.203Z,2488
2016-10-20T06:59:59.173Z,2476
2016-10-20T07:00:59.143Z,2500
2016-10-20T07:01:59.118Z,2564
2016-10-20T07:02:59.096Z,2628
2016-10-20T07:03:59.060Z,2680
2016-10-20T07:04:59.030Z,2748
2016-10-20T07:05:59.000Z,2824
2016-10-20T07:06:58.973Z,2900
2016-10-20T07:07:58.953Z,2952
2016-10-20T07:08:58.950Z,3000
2016-10-20T07:09:58.887Z,3024
2016-10-20T07:10:58.861Z,3036
2016-10-20T07:11:58.830Z,3040
2016-10-20T07:12:58.803Z,3016
2016-10-20T07:13:58.779Z,2972
2016-10-20T07:14:58.742Z,2924
2016-10-20T07:15:58.714Z,2844
2016-10-20T07:16:58.686Z,2752
2016-10-20T07:17:58.660Z,2664
2016-10-20T07:18:58.636Z,2592
2016-10-20T07:19:58.607Z,2556
2016-10-20T07:20:58.580Z,2588
2016-10-20T07:21:58.550Z,2672
2016-10-20T07:22:58.526Z,2760
2016-10-20T07:23:58.565Z,2876
2016-10-20T07:24:58.465Z,2992
2016-10-20T07:25:58.438Z,3116
2016-10-20T07:26:58.415Z,3256
2016-10-20T07:27:58.402Z,3432
2016-10-20T07:28:58.354Z,3600
2016-10-20T07:29:58.320Z,3820
2016-10-20T07:30:58.349Z,4024
2016-10-20T07:31:58.272Z,4056
2016-10-20T07:32:58.237Z,4248
2016-10-20T07:33:58.215Z,4372
2016-10-20T07:34:58.183Z,4636
2016-10-20T07:35:58.161Z,4792
2016-10-20T07:36:58.131Z,4940
2016-10-20T07:37:58.116Z,5148
2016-10-20T07:38:58.077Z,5316
2016-10-20T07:39:58.048Z,5472
2016-10-20T07:40:58.020Z,5676
2016-10-20T07:41:58.292Z,5828
2016-10-20T07:42:57.969Z,5968
2016-10-20T07:43:58.344Z,6032
2016-10-20T07:44:57.938Z,5928
2016-10-20T07:45:57.883Z,5796
2016-10-20T07:46:57.848Z,5776
2016-10-20T07:47:57.817Z,5804
2016-10-20T07:48:57.796Z,6044
2016-10-20T07:49:57.770Z,6328
2016-10-20T07:50:57.738Z,6504
2016-10-20T07:51:57.717Z,6544
2016-10-20T07:52:57.716Z,6520
2016-10-20T07:53:57.657Z,6556
2016-10-20T07:54:57.625Z,6676
2016-10-20T07:55:57.604Z,6788
2016-10-20T07:56:57.574Z,6864
2016-10-20T07:57:57.545Z,6900
2016-10-20T07:58:57.525Z,6980
2016-10-20T07:59:57.490Z,7092
2016-10-20T08:00:57.464Z,7256
2016-10-20T08:01:57.438Z,7436
2016-10-20T08:02:57.412Z,7620
2016-10-20T08:03:57.386Z,7840
2016-10-20T08:04:57.356Z,8036
2016-10-20T08:05:57.331Z,8188
2016-10-20T08:06:57.303Z,8244
2016-10-20T08:07:57.276Z,8292
2016-10-20T08:08:57.250Z,8320
2016-10-20T08:09:57.219Z,8280
2016-10-20T08:10:57.193Z,8172
2016-10-20T08:11:57.202Z,8060
2016-10-20T08:12:57.141Z,7956
2016-10-20T08:13:57.117Z,7876
2016-10-20T08:14:57.088Z,7784
2016-10-20T08:15:57.055Z,7792
2016-10-20T08:16:57.039Z,7864
2016-10-20T08:17:57.003Z,7948
2016-10-20T08:18:56.976Z,8044
2016-10-20T08:19:56.953Z,8132
2016-10-20T08:20:56.928Z,8244
2016-10-20T08:21:56.900Z,8416
2016-10-20T08:22:56.891Z,8624
2016-10-20T08:23:56.885Z,8744
2016-10-20T08:24:56.830Z,8700
2016-10-20T08:25:56.866Z,8644
2016-10-20T08:26:56.764Z,8644
2016-10-20T08:27:56.748Z,8696
2016-10-20T08:28:56.724Z,8704
2016-10-20T08:29:56.686Z,8736
2016-10-20T08:30:56.668Z,8780
2016-10-20T08:31:56.637Z,8748
2016-10-20T08:32:56.608Z,8652
2016-10-20T08:33:56.679Z,8572
2016-10-20T08:34:56.553Z,8528
2016-10-20T08:35:56.534Z,8300
2016-10-20T08:36:56.504Z,7908
2016-10-20T08:37:56.771Z,7608
2016-10-20T08:38:56.452Z,7488
2016-10-20T08:39:56.471Z,7372
2016-10-20T08:40:56.691Z,7140
2016-10-20T08:41:56.375Z,7124
2016-10-20T08:42:56.347Z,7460
2016-10-20T08:43:56.321Z,8044
2016-10-20T08:44:56.291Z,8648
2016-10-20T08:45:56.303Z,9136
2016-10-20T08:46:56.233Z,9408
2016-10-20T08:47:56.212Z,9612
2016-10-20T08:48:56.186Z,9764
2016-10-20T08:49:56.165Z,9892
2016-10-20T08:50:56.134Z,9932
2016-10-20T08:51:56.105Z,9896
2016-10-20T08:52:56.085Z,9844
2016-10-20T08:53:56.062Z,9848
2016-10-20T08:54:56.027Z,9848
2016-10-20T08:55:56.004Z,9760
2016-10-20T08:56:56.014Z,9600
2016-10-20T08:57:56.007Z,9616
2016-10-20T08:58:55.971Z,9712
2016-10-20T08:59:55.901Z,9856
2016-10-20T09:00:55.910Z,10016
2016-10-20T09:01:55.847Z,10236
2016-10-20T09:02:55.863Z,10336
2016-10-20T09:03:55.794Z,10184
2016-10-20T09:04:56.171Z,9800
2016-10-20T09:05:55.744Z,9336
2016-10-20T09:06:55.719Z,8928
2016-10-20T09:07:55.693Z,8572
2016-10-20T09:08:55.666Z,8224
2016-10-20T09:09:55.633Z,8048
2016-10-20T09:10:56.188Z,8052
2016-10-20T09:11:55.586Z,8192
2016-10-20T09:12:55.557Z,8440
2016-10-20T09:13:55.532Z,8816
2016-10-20T09:14:55.557Z,9280
2016-10-20T09:15:55.485Z,9796
2016-10-20T09:16:55.452Z,10072
2016-10-20T09:17:55.432Z,10048
2016-10-20T09:18:55.406Z,9848
2016-10-20T09:19:55.372Z,9616
2016-10-20T09:20:55.349Z,9476
2016-10-20T09:21:55.322Z,9488
2016-10-20T09:22:55.297Z,9612
2016-10-20T09:23:55.571Z,9812
2016-10-20T09:24:55.245Z,10136
2016-10-20T09:25:55.682Z,10564
2016-10-20T09:26:55.230Z,10984
2016-10-20T09:27:55.165Z,11384
2016-10-20T09:28:55.179Z,11684
2016-10-20T09:29:55.181Z,11852
2016-10-20T09:30:55.086Z,12036
2016-10-20T09:31:55.063Z,12332
2016-10-20T09:32:55.039Z,12696
2016-10-20T09:33:55.013Z,13044
2016-10-20T09:34:54.984Z,13244
2016-10-20T09:35:54.959Z,13344
2016-10-20T09:36:54.935Z,13396
2016-10-20T09:37:54.944Z,13404
2016-10-20T09:38:54.894Z,13288
2016-10-20T09:39:54.854Z,13148
2016-10-20T09:40:54.839Z,13104
2016-10-20T09:41:54.802Z,13148
2016-10-20T09:42:54.807Z,13268
2016-10-20T09:43:54.754Z,13348
2016-10-20T09:44:54.726Z,13456
2016-10-20T09:45:54.701Z,13520
2016-10-20T09:46:54.674Z,13508
2016-10-20T09:47:54.651Z,13400
2016-10-20T09:48:54.624Z,13180
2016-10-20T09:49:54.598Z,12984
2016-10-20T09:50:54.571Z,12840
2016-10-20T09:51:54.549Z,12800
2016-10-20T09:52:54.593Z,12920
2016-10-20T09:53:54.494Z,13132
2016-10-20T09:54:54.472Z,13352
2016-10-20T09:55:54.472Z,13660
2016-10-20T09:56:54.423Z,13916
2016-10-20T09:57:54.404Z,14048
2016-10-20T09:58:54.444Z,13852
2016-10-20T09:59:54.354Z,13528
2016-10-20T10:00:54.318Z,13176
2016-10-20T10:01:54.338Z,12668
2016-10-20T10:02:54.271Z,12064
2016-10-20T10:03:54.242Z,11412
2016-10-20T10:04:54.518Z,10840
2016-10-20T10:05:54.193Z,10248
2016-10-20T10:06:54.168Z,9528
2016-10-20T10:07:54.148Z,8832
2016-10-20T10:08:54.120Z,8172
2016-10-20T10:09:54.104Z,7612
2016-10-20T10:10:54.074Z,6828
2016-10-20T10:11:54.089Z,6124
2016-10-20T10:12:54.019Z,5664
2016-10-20T10:13:54.001Z,5192
2016-10-20T10:14:53.966Z,4588
2016-10-20T10:15:53.987Z,4020
2016-10-20T10:16:53.944Z,3584
2016-10-20T10:17:53.899Z,3284
2016-10-20T10:18:53.863Z,3136
2016-10-20T10:19:53.841Z,3124
2016-10-20T10:20:53.821Z,3220
2016-10-20T10:21:53.786Z,3360
2016-10-20T10:22:53.766Z,3472
2016-10-20T10:23:53.737Z,3460
2016-10-20T10:24:53.721Z,3260
2016-10-20T10:25:53.686Z,3036
2016-10-20T10:26:53.674Z,2912
2016-10-20T10:27:53.631Z,2776
2016-10-20T10:28:53.614Z,2688
2016-10-20T10:29:53.580Z,2644
2016-10-20T10:30:53.855Z,2596
2016-10-20T10:31:53.527Z,2540
2016-10-20T10:32:53.505Z,2456
2016-10-20T10:33:53.476Z,2376
2016-10-20T10:34:53.471Z,2312
2016-10-20T10:35:53.801Z,2236
2016-10-20T10:36:53.402Z,2164
2016-10-20T10:37:53.375Z,2112
2016-10-20T10:38:53.346Z,2076
2016-10-20T10:39:53.330Z,2092
2016-10-20T10:40:53.290Z,2156
2016-10-20T10:41:53.271Z,2272
2016-10-20T10:42:53.248Z,2344
2016-10-20T10:43:53.218Z,2292
2016-10-20T10:44:53.196Z,2504
2016-10-20T10:45:53.162Z,2680
2016-10-20T10:46:53.133Z,2744
2016-10-20T10:47:53.113Z,2728
2016-10-20T10:48:53.453Z,2660
2016-10-20T10:49:53.055Z,2636
2016-10-20T10:50:53.331Z,2544
2016-10-20T10:51:53.006Z,2468
2016-10-20T10:52:53.318Z,2372
2016-10-20T10:53:52.949Z,2332
2016-10-20T10:54:52.925Z,2268
2016-10-20T10:55:52.900Z,2276
2016-10-20T10:56:52.870Z,2352
2016-10-20T10:57:52.846Z,2460
2016-10-20T10:58:52.820Z,2556
2016-10-20T10:59:52.789Z,2664
2016-10-20T11:00:52.763Z,2740
2016-10-20T11:01:52.739Z,2896
2016-10-20T11:02:52.709Z,2912
2016-10-20T11:03:52.683Z,2776
2016-10-20T11:04:52.653Z,2724
2016-10-20T11:05:52.632Z,2608
2016-10-20T11:06:52.600Z,2636
2016-10-20T11:07:52.574Z,2536
2016-10-20T11:08:52.585Z,2428
2016-10-20T11:09:52.520Z,2604
2016-10-20T11:10:52.493Z,2872
2016-10-20T11:11:52.469Z,3328
2016-10-20T11:12:52.443Z,3904
2016-10-20T11:13:52.410Z,4332
2016-10-20T11:14:52.381Z,4656
2016-10-20T11:15:52.358Z,4948
2016-10-20T11:16:52.333Z,5256
2016-10-20T11:17:52.303Z,5608
2016-10-20T11:18:52.289Z,5928
2016-10-20T11:19:52.250Z,6212
2016-10-20T11:20:52.272Z,6476
2016-10-20T11:21:52.195Z,6960
2016-10-20T11:22:52.173Z,7548
2016-10-20T11:23:52.143Z,8108
2016-10-20T11:24:52.116Z,8516
2016-10-20T11:25:52.090Z,8808
2016-10-20T11:26:52.063Z,9132
2016-10-20T11:27:52.035Z,9580
2016-10-20T11:28:52.010Z,10208
2016-10-20T11:29:52.763Z,10884
2016-10-20T11:30:51.958Z,11452
2016-10-20T11:31:51.926Z,11896
2016-10-20T11:32:51.905Z,12264
2016-10-20T11:33:51.885Z,12744
2016-10-20T11:34:51.855Z,13340
2016-10-20T11:35:51.819Z,13964
2016-10-20T11:36:53.027Z,14636
2016-10-20T11:37:51.843Z,14884
2016-10-20T11:38:51.747Z,14624
2016-10-20T11:39:51.719Z,14152
2016-10-20T11:40:51.708Z,13556
2016-10-20T11:41:51.664Z,13528
2016-10-20T11:42:51.641Z,13848
2016-10-20T11:43:51.622Z,14040
2016-10-20T11:44:51.586Z,13972
2016-10-20T11:45:51.726Z,13768
2016-10-20T11:46:51.545Z,13556
2016-10-20T11:47:51.523Z,13324
2016-10-20T11:48:51.498Z,13160
2016-10-20T11:49:51.467Z,12928
2016-10-20T11:50:52.398Z,12812
2016-10-20T11:51:51.649Z,12772
2016-10-20T11:52:51.382Z,12672
2016-10-20T11:53:51.358Z,12496
2016-10-20T11:54:51.346Z,11980
2016-10-20T11:55:51.313Z,11416
2016-10-20T11:56:51.289Z,11352
2016-10-20T11:57:51.265Z,11592
2016-10-20T11:58:51.233Z,11700
2016-10-20T11:59:51.217Z,11600
2016-10-20T12:00:51.191Z,11348
2016-10-20T12:01:51.163Z,10912
2016-10-20T12:02:51.140Z,10412
2016-10-20T12:03:51.113Z,10084
2016-10-20T12:04:51.087Z,10056
2016-10-20T12:05:51.062Z,10116
2016-10-20T12:06:51.039Z,10280
2016-10-20T12:07:51.153Z,10552
2016-10-20T12:08:50.990Z,10844
2016-10-20T12:09:50.964Z,11324
2016-10-20T12:10:50.973Z,11624
2016-10-20T12:11:50.913Z,11848
2016-10-20T12:12:50.887Z,12568
2016-10-20T12:13:50.864Z,13492
2016-10-20T12:14:50.843Z,14028
2016-10-20T12:15:50.815Z,14320
2016-10-20T12:16:50.790Z,14904
2016-10-20T12:17:50.763Z,15348
2016-10-20T12:18:50.736Z,15264
2016-10-20T12:19:50.712Z,14576
2016-10-20T12:20:50.724Z,14364
2016-10-20T12:21:50.669Z,14396
2016-10-20T12:22:50.639Z,14204
2016-10-20T12:23:50.615Z,13888
2016-10-20T12:24:50.592Z,13584
2016-10-20T12:25:50.571Z,13668
2016-10-20T12:26:50.549Z,13860
2016-10-20T12:27:50.516Z,13956
2016-10-20T12:28:50.496Z,13856
2016-10-20T12:29:50.473Z,13944
2016-10-20T12:30:50.482Z,14144
2016-10-20T12:31:50.416Z,14440
2016-10-20T12:32:50.397Z,14788
2016-10-20T12:33:50.374Z,14928
2016-10-20T12:34:50.395Z,14964
2016-10-20T12:35:50.669Z,14992
2016-10-20T12:36:50.299Z,15432
2016-10-20T12:37:50.285Z,15648
2016-10-20T12:38:50.249Z,15704
2016-10-20T12:39:51.296Z,15724
2016-10-20T12:40:50.205Z,15428
2016-10-20T12:41:50.179Z,15288
2016-10-20T12:42:50.155Z,15048
2016-10-20T12:43:50.138Z,14652
2016-10-20T12:44:50.106Z,14308
2016-10-20T12:45:50.127Z,14432
2016-10-20T12:46:50.681Z,14812
2016-10-20T12:47:50.044Z,14852
2016-10-20T12:48:50.009Z,14856
2016-10-20T12:49:49.986Z,14624
2016-10-20T12:50:49.971Z,14804
2016-10-20T12:51:49.945Z,15256
2016-10-20T12:52:49.920Z,15272
2016-10-20T12:53:49.933Z,14880
2016-10-20T12:54:49.879Z,14696
2016-10-20T12:55:49.855Z,14880
2016-10-20T12:56:49.822Z,15236
2016-10-20T12:57:49.834Z,15700
2016-10-20T12:58:49.771Z,15988
2016-10-20T12:59:49.752Z,15948
2016-10-20T13:00:49.726Z,15500
2016-10-20T13:01:49.700Z,14968
2016-10-20T13:02:49.719Z,14740
2016-10-20T13:03:49.655Z,14504
2016-10-20T13:04:49.632Z,14344
2016-10-20T13:05:49.603Z,14816
2016-10-20T13:06:49.584Z,15168
2016-10-20T13:07:49.559Z,15356
2016-10-20T13:08:49.538Z,15732
2016-10-20T13:09:49.548Z,16300
2016-10-20T13:10:49.495Z,16720
2016-10-20T13:11:49.470Z,17376
2016-10-20T13:12:49.438Z,18688
2016-10-20T13:13:49.419Z,20288
2016-10-20T13:14:49.436Z,21152
2016-10-20T13:15:49.371Z,20928
2016-10-20T13:16:49.348Z,20032
2016-10-20T13:17:49.368Z,19040
2016-10-20T13:18:49.301Z,18432
2016-10-20T13:19:49.275Z,18080
2016-10-20T13:20:49.253Z,18016
2016-10-20T13:21:49.234Z,17824
2016-10-20T13:22:49.504Z,17440
2016-10-20T13:23:49.187Z,16904
2016-10-20T13:24:49.162Z,16640
2016-10-20T13:25:49.143Z,16496
2016-10-20T13:26:49.117Z,16432
2016-10-20T13:27:49.090Z,16208
2016-10-20T13:28:49.069Z,15976
2016-10-20T13:29:49.046Z,15760
2016-10-20T13:30:49.321Z,15568
2016-10-20T13:31:49.002Z,15360
2016-10-20T13:32:48.972Z,15132
2016-10-20T13:33:48.949Z,14804
2016-10-20T13:34:48.929Z,14360
2016-10-20T13:35:48.909Z,13884
2016-10-20T13:36:48.885Z,13452
2016-10-20T13:37:48.860Z,13092
2016-10-20T13:38:48.835Z,12820
2016-10-20T13:39:48.844Z,12700
2016-10-20T13:40:48.794Z,12712
2016-10-20T13:41:48.773Z,12792
2016-10-20T13:42:48.742Z,12888
2016-10-20T13:43:48.722Z,12960
2016-10-20T13:44:48.697Z,13016
2016-10-20T13:45:48.671Z,13040
2016-10-20T13:46:48.649Z,13040
2016-10-20T13:47:48.724Z,13020